createdAt,value
2023-04-23T00:02:01.360Z,72.86
2023-04-23T00:04:29.021Z,73.57
2023-04-23T00:06:55.927Z,74.35
2023-04-23T00:09:23.850Z,74.93
2023-04-23T00:11:50.564Z,75.92
2023-04-23T00:14:17.350Z,77.26
2023-04-23T00:16:44.263Z,79.22
2023-04-23T00:19:10.804Z,79.72
2023-04-23T00:21:37.708Z,79.25
2023-04-23T00:24:04.908Z,79.41
2023-04-23T00:26:31.359Z,79.91
2023-04-23T00:28:57.815Z,79.62
2023-04-23T00:31:27.145Z,79.95
2023-04-23T00:33:54.041Z,80.12
2023-04-23T00:36:20.520Z,80.63
2023-04-23T00:38:46.985Z,81.01
2023-04-23T00:41:14.895Z,81.19
2023-04-23T00:43:41.440Z,81.13
2023-04-23T00:46:07.975Z,81.42
2023-04-23T00:48:35.004Z,81.25
2023-04-23T00:51:06.342Z,81.78
2023-04-23T00:53:34.132Z,81.50
2023-04-23T00:56:04.559Z,81.94
2023-04-23T00:58:32.282Z,81.92
2023-04-23T01:00:59.231Z,81.64
2023-04-23T01:03:27.366Z,81.48
2023-04-23T01:05:56.677Z,81.46
2023-04-23T01:08:25.951Z,81.32
2023-04-23T01:10:53.762Z,81.37
2023-04-23T01:13:22.514Z,81.44
2023-04-23T01:15:49.636Z,81.81
2023-04-23T01:18:16.259Z,81.55
2023-04-23T01:20:43.713Z,81.97
2023-04-23T01:23:10.772Z,82.03
2023-04-23T01:25:37.899Z,82.67
2023-04-23T01:28:06.694Z,82.72
2023-04-23T01:30:33.473Z,82.98
2023-04-23T01:33:02.597Z,83.08
2023-04-23T01:35:30.086Z,83.38
2023-04-23T01:37:59.056Z,83.81
2023-04-23T01:40:25.585Z,84.07
2023-04-23T01:42:52.713Z,84.20
2023-04-23T01:45:19.842Z,84.58
2023-04-23T01:47:48.158Z,84.85
2023-04-23T01:50:14.899Z,84.98
2023-04-23T01:52:42.487Z,84.98
2023-04-23T01:55:09.646Z,85.48
2023-04-23T01:57:36.806Z,85.26
2023-04-23T02:00:12.242Z,85.81
2023-04-23T02:02:42.467Z,85.96
2023-04-23T02:05:12.452Z,86.27
2023-04-23T02:07:39.836Z,86.63
2023-04-23T02:10:07.963Z,86.61
2023-04-23T02:12:34.741Z,86.75
2023-04-23T02:15:01.729Z,86.86
2023-04-23T02:17:29.352Z,87.56
2023-04-23T02:19:56.499Z,87.55
2023-04-23T02:22:25.204Z,88.51
2023-04-23T02:24:55.237Z,88.54
2023-04-23T02:27:22.264Z,89.03
2023-04-23T02:29:49.960Z,90.27
2023-04-23T02:32:16.687Z,90.80
2023-04-23T02:34:43.422Z,92.38
2023-04-23T02:37:10.430Z,92.36
2023-04-23T02:39:39.179Z,93.48
2023-04-23T02:42:06.079Z,95.11
2023-04-23T02:44:33.118Z,95.18
2023-04-23T02:47:00.357Z,96.60
2023-04-23T02:49:27.065Z,97.67
2023-04-23T02:51:53.716Z,97.47
2023-04-23T02:54:20.299Z,98.46
2023-04-23T02:56:46.915Z,99.47
2023-04-23T02:59:13.618Z,99.55
2023-04-23T03:01:40.179Z,99.55
2023-04-23T03:04:09.162Z,100.00
2023-04-23T03:06:37.008Z,100.00
2023-04-23T03:09:04.054Z,100.00
2023-04-23T03:11:31.463Z,100.00
2023-04-23T03:13:58.349Z,100.00
2023-04-23T03:16:28.631Z,100.00
2023-04-23T03:18:55.789Z,100.00
2023-04-23T03:21:23.014Z,100.00
2023-04-23T03:23:50.153Z,100.00
2023-04-23T03:26:17.267Z,100.00
2023-04-23T03:28:43.771Z,100.00
2023-04-23T03:31:10.437Z,100.00
2023-04-23T03:33:37.017Z,100.00
2023-04-23T03:36:03.962Z,100.00
2023-04-23T03:38:32.387Z,100.00
2023-04-23T03:40:59.856Z,100.00
2023-04-23T03:43:26.913Z,100.00
2023-04-23T03:46:02.753Z,100.00
2023-04-23T03:48:32.391Z,100.00
2023-04-23T03:51:01.904Z,100.00
2023-04-23T03:53:42.416Z,100.00
2023-04-23T03:56:27.698Z,100.00
2023-04-23T03:59:07.307Z,100.00
2023-04-23T04:01:36.172Z,100.00
2023-04-23T04:04:03.516Z,100.00
2023-04-23T04:06:32.326Z,100.00
2023-04-23T04:08:58.744Z,100.00
2023-04-23T04:11:26.507Z,100.00
2023-04-23T04:13:53.101Z,100.00
2023-04-23T04:16:19.750Z,100.00
2023-04-23T04:18:46.331Z,100.00
2023-04-23T04:21:12.964Z,100.00
2023-04-23T04:23:39.953Z,100.00
2023-04-23T04:26:07.888Z,100.00
2023-04-23T04:28:36.338Z,100.00
2023-04-23T04:31:03.935Z,100.00
2023-04-23T04:33:30.682Z,100.00
2023-04-23T04:35:57.708Z,100.00
2023-04-23T04:38:24.260Z,100.00
2023-04-23T04:40:50.867Z,100.00
2023-04-23T04:43:17.788Z,100.00
2023-04-23T04:45:45.160Z,100.00
2023-04-23T04:48:12.028Z,100.00
2023-04-23T04:50:38.663Z,100.00
2023-04-23T04:53:05.288Z,100.00
2023-04-23T04:55:31.902Z,100.00
2023-04-23T04:57:58.719Z,100.00
2023-04-23T05:00:29.255Z,100.00
2023-04-23T05:02:57.457Z,100.00
2023-04-23T05:05:25.805Z,100.00
2023-04-23T05:07:54.321Z,100.00
2023-04-23T05:10:21.461Z,100.00
2023-04-23T05:12:48.014Z,100.00
2023-04-23T05:15:14.910Z,100.00
2023-04-23T05:17:42.085Z,100.00
2023-04-23T05:20:10.918Z,100.00
2023-04-23T05:22:41.797Z,100.00
2023-04-23T05:25:09.932Z,100.00
2023-04-23T05:27:36.437Z,100.00
2023-04-23T05:30:04.764Z,100.00
2023-04-23T05:32:31.765Z,100.00
2023-04-23T05:35:00.325Z,100.00
2023-04-23T05:37:27.226Z,100.00
2023-04-23T05:39:54.101Z,100.00
2023-04-23T05:42:20.716Z,100.00
2023-04-23T05:44:47.227Z,100.00
2023-04-23T05:47:14.636Z,100.00
2023-04-23T05:49:41.944Z,100.00
2023-04-23T05:52:09.177Z,100.00
2023-04-23T05:54:35.898Z,100.00
2023-04-23T05:57:03.190Z,100.00
2023-04-23T05:59:29.746Z,100.00
2023-04-23T06:01:56.422Z,100.00
2023-04-23T06:04:23.065Z,100.00
2023-04-23T06:06:49.644Z,100.00
2023-04-23T06:09:16.342Z,100.00
2023-04-23T06:11:42.848Z,100.00
2023-04-23T06:14:11.305Z,100.00
2023-04-23T06:16:37.878Z,100.00
2023-04-23T06:19:04.456Z,100.00
2023-04-23T06:21:32.439Z,100.00
2023-04-23T06:23:59.134Z,100.00
2023-04-23T06:26:25.600Z,100.00
2023-04-23T06:28:55.396Z,100.00
2023-04-23T06:31:28.429Z,100.00
2023-04-23T06:33:55.065Z,100.00
2023-04-23T06:36:21.642Z,100.00
2023-04-23T06:38:48.104Z,100.00
2023-04-23T06:41:15.394Z,100.00
2023-04-23T06:43:42.765Z,100.00
2023-04-23T06:46:30.638Z,100.00
2023-04-23T06:48:57.076Z,100.00
2023-04-23T06:51:26.883Z,100.00
2023-04-23T06:53:53.996Z,100.00
2023-04-23T06:56:21.463Z,100.00
2023-04-23T06:58:48.103Z,100.00
2023-04-23T07:01:20.613Z,100.00
2023-04-23T07:03:49.209Z,100.00
2023-04-23T07:06:16.317Z,100.00
2023-04-23T07:08:46.001Z,100.00
2023-04-23T07:11:12.649Z,100.00
2023-04-23T07:13:39.868Z,100.00
2023-04-23T07:16:06.704Z,100.00
2023-04-23T07:18:33.403Z,100.00
2023-04-23T07:21:00.039Z,100.00
2023-04-23T07:23:26.552Z,100.00
2023-04-23T07:25:53.008Z,100.00
2023-04-23T07:28:19.972Z,100.00
2023-04-23T07:30:46.838Z,100.00
2023-04-23T07:33:13.826Z,100.00
2023-04-23T07:35:40.437Z,100.00
2023-04-23T07:38:07.013Z,100.00
2023-04-23T07:40:33.931Z,100.00
2023-04-23T07:43:01.413Z,100.00
2023-04-23T07:45:28.066Z,100.00
2023-04-23T07:47:54.618Z,100.00
2023-04-23T07:50:21.422Z,100.00
2023-04-23T07:52:47.933Z,100.00
2023-04-23T07:55:14.576Z,100.00
2023-04-23T07:57:41.149Z,100.00
2023-04-23T08:00:11.366Z,100.00
2023-04-23T08:02:40.860Z,100.00
2023-04-23T08:05:08.335Z,100.00
2023-04-23T08:07:35.020Z,100.00
2023-04-23T08:10:06.300Z,100.00
2023-04-23T08:12:35.730Z,100.00
2023-04-23T08:15:02.684Z,99.22
2023-04-23T08:17:35.873Z,98.65
2023-04-23T08:20:04.042Z,98.57
2023-04-23T08:22:30.766Z,98.77
2023-04-23T08:24:57.428Z,95.36
2023-04-23T08:27:24.192Z,94.96
2023-04-23T08:29:51.803Z,93.11
2023-04-23T08:32:18.395Z,93.13
2023-04-23T08:34:45.274Z,89.50
2023-04-23T08:37:23.120Z,86.69
2023-04-23T08:39:54.053Z,88.45
2023-04-23T08:42:30.587Z,89.31
2023-04-23T08:44:57.745Z,89.68
2023-04-23T08:47:25.447Z,88.51
2023-04-23T08:49:56.649Z,87.60
2023-04-23T08:52:25.607Z,87.33
2023-04-23T08:55:00.197Z,86.79
2023-04-23T08:57:27.905Z,87.31
2023-04-23T08:59:55.430Z,86.64
2023-04-23T09:02:23.920Z,85.89
2023-04-23T09:04:52.910Z,87.38
2023-04-23T09:07:20.668Z,86.95
2023-04-23T09:09:47.298Z,82.94
2023-04-23T09:12:14.128Z,79.93
2023-04-23T09:14:40.974Z,82.18
2023-04-23T09:17:07.879Z,82.96
2023-04-23T09:19:36.552Z,81.95
2023-04-23T09:22:03.037Z,82.31
2023-04-23T09:24:30.506Z,83.34
2023-04-23T09:26:58.599Z,82.58
2023-04-23T09:29:25.322Z,81.01
2023-04-23T09:31:54.804Z,82.22
2023-04-23T09:34:25.342Z,79.34
2023-04-23T09:36:53.483Z,79.51
2023-04-23T09:39:23.329Z,79.27
2023-04-23T09:41:57.037Z,73.91
2023-04-23T09:44:24.287Z,74.05
2023-04-23T09:46:50.968Z,73.71
2023-04-23T09:49:17.809Z,72.28
2023-04-23T09:51:47.537Z,70.16
2023-04-23T09:54:26.112Z,70.58
2023-04-23T09:56:56.969Z,71.06
2023-04-23T09:59:46.077Z,71.89
2023-04-23T10:02:14.332Z,70.83
2023-04-23T10:04:41.900Z,72.25
2023-04-23T10:09:43.187Z,68.61
2023-04-23T10:12:27.679Z,67.94
2023-04-23T10:14:57.490Z,64.86
2023-04-23T10:17:25.827Z,66.28
2023-04-23T10:19:52.562Z,68.95
2023-04-23T10:22:21.724Z,69.13
2023-04-23T10:24:56.190Z,68.51
2023-04-23T10:27:40.256Z,69.17
2023-04-23T10:30:13.253Z,68.51
2023-04-23T10:32:41.373Z,68.19
2023-04-23T10:35:10.341Z,68.50
2023-04-23T10:37:38.267Z,68.55
2023-04-23T10:40:14.333Z,65.54
2023-04-23T10:42:43.058Z,65.58
2023-04-23T10:45:23.113Z,63.22
2023-04-23T10:47:52.800Z,61.73
2023-04-23T10:50:30.068Z,60.09
2023-04-23T10:52:58.154Z,62.52
2023-04-23T10:55:30.514Z,63.13
2023-04-23T10:58:08.430Z,61.87
2023-04-23T11:00:46.303Z,63.31
2023-04-23T11:03:44.419Z,59.15
2023-04-23T11:06:20.732Z,58.42
2023-04-23T11:08:54.553Z,59.82
2023-04-23T11:11:40.155Z,61.18
2023-04-23T11:14:16.160Z,61.96
2023-04-23T11:16:43.136Z,61.45
2023-04-23T11:19:12.595Z,60.91
2023-04-23T11:21:54.880Z,60.17
2023-04-23T11:24:32.224Z,56.57
2023-04-23T11:27:00.347Z,56.91
2023-04-23T11:29:28.907Z,59.04
2023-04-23T11:34:26.134Z,59.28
2023-04-23T11:36:54.827Z,57.50
2023-04-23T11:39:24.219Z,56.06
2023-04-23T11:41:52.304Z,54.50
2023-04-23T11:44:23.462Z,54.78
2023-04-23T11:46:50.514Z,56.41
2023-04-23T11:49:18.742Z,56.56
2023-04-23T11:51:46.553Z,55.92
2023-04-23T11:54:15.166Z,56.58
2023-04-23T11:56:42.367Z,54.48
2023-04-23T11:59:09.788Z,54.21
2023-04-23T12:01:44.955Z,52.83
2023-04-23T12:04:15.380Z,52.49
2023-04-23T12:06:44.245Z,51.16
2023-04-23T12:09:12.378Z,50.53
2023-04-23T12:11:43.341Z,51.36
2023-04-23T12:14:11.379Z,51.28
2023-04-23T12:16:40.120Z,52.24
2023-04-23T12:19:30.944Z,52.69
2023-04-23T12:22:00.666Z,51.61
2023-04-23T12:24:29.969Z,48.75
2023-04-23T12:27:00.460Z,50.29
2023-04-23T12:29:30.178Z,49.66
2023-04-23T12:31:59.614Z,50.06
2023-04-23T12:34:26.139Z,50.18
2023-04-23T12:36:55.415Z,49.22
2023-04-23T12:39:34.887Z,49.40
2023-04-23T12:42:05.700Z,48.96
2023-04-23T12:44:37.802Z,47.82
2023-04-23T12:47:09.278Z,49.83
2023-04-23T12:49:37.307Z,49.08
2023-04-23T12:52:05.271Z,50.13
2023-04-23T12:54:33.741Z,50.27
2023-04-23T12:57:03.958Z,50.02
2023-04-23T12:59:32.024Z,47.92
2023-04-23T13:02:03.044Z,47.93
2023-04-23T13:04:31.472Z,48.25
2023-04-23T13:06:57.971Z,48.08
2023-04-23T13:09:28.157Z,47.70
2023-04-23T13:11:55.238Z,47.66
2023-04-23T13:14:21.854Z,47.26
2023-04-23T13:16:49.266Z,47.39
2023-04-23T13:19:17.188Z,47.98
2023-04-23T13:21:44.787Z,46.07
2023-04-23T13:24:11.418Z,46.07
2023-04-23T13:26:38.153Z,45.85
2023-04-23T13:29:05.124Z,47.98
2023-04-23T13:31:32.007Z,48.22
2023-04-23T13:33:58.850Z,49.43
2023-04-23T13:36:25.834Z,50.53
2023-04-23T13:38:52.793Z,51.48
2023-04-23T13:41:19.242Z,51.55
2023-04-23T13:43:45.708Z,52.27
2023-04-23T13:46:12.648Z,53.29
2023-04-23T13:48:39.170Z,54.15
2023-04-23T13:51:11.409Z,54.79
2023-04-23T13:53:48.476Z,55.87
2023-04-23T13:56:15.293Z,56.26
2023-04-23T13:58:45.298Z,56.31
2023-04-23T14:01:13.479Z,54.80
2023-04-23T14:03:40.197Z,54.80
2023-04-23T14:06:07.125Z,54.73
2023-04-23T14:08:33.827Z,54.36
2023-04-23T14:11:00.841Z,53.84
2023-04-23T14:13:27.351Z,53.44
2023-04-23T14:15:54.042Z,53.60
2023-04-23T14:18:21.054Z,52.22
2023-04-23T14:20:47.957Z,51.77
2023-04-23T14:23:23.467Z,51.07
2023-04-23T14:26:04.065Z,50.08
2023-04-23T14:28:39.062Z,47.92
2023-04-23T14:31:05.836Z,44.93
2023-04-23T14:33:32.607Z,45.84
2023-04-23T14:35:59.304Z,46.20
2023-04-23T14:38:26.777Z,46.51
2023-04-23T14:40:53.798Z,46.11
2023-04-23T14:43:20.309Z,44.42
2023-04-23T14:45:47.040Z,44.36
2023-04-23T14:48:13.746Z,43.85
2023-04-23T14:50:40.522Z,44.33
2023-04-23T14:53:10.134Z,44.33
2023-04-23T14:55:37.066Z,44.40
2023-04-23T14:58:03.845Z,45.27
2023-04-23T15:00:30.574Z,46.38
2023-04-23T15:02:57.415Z,45.56
2023-04-23T15:05:24.253Z,45.98
2023-04-23T15:07:51.734Z,47.06
2023-04-23T15:10:18.952Z,47.56
2023-04-23T15:13:01.152Z,47.97
2023-04-23T15:15:44.523Z,47.18
2023-04-23T15:18:14.030Z,47.32
2023-04-23T15:20:41.372Z,47.69
2023-04-23T15:23:07.954Z,47.25
2023-04-23T15:25:35.750Z,47.92
2023-04-23T15:28:03.611Z,48.36
2023-04-23T15:30:30.292Z,49.33
2023-04-23T15:32:57.572Z,51.31
2023-04-23T15:35:25.651Z,52.37
2023-04-23T15:37:52.925Z,53.33
2023-04-23T15:40:19.942Z,53.58
2023-04-23T15:42:47.359Z,53.47
2023-04-23T15:45:14.006Z,54.42
2023-04-23T15:47:42.090Z,54.64
2023-04-23T15:50:10.137Z,55.32
2023-04-23T15:52:37.557Z,55.12
2023-04-23T15:55:07.625Z,55.39
2023-04-23T15:57:34.260Z,55.10
2023-04-23T16:00:01.386Z,55.17
2023-04-23T16:02:38.632Z,53.22
2023-04-23T16:05:05.565Z,51.29
2023-04-23T16:07:32.194Z,48.97
2023-04-23T16:09:58.768Z,47.52
2023-04-23T16:12:25.344Z,47.12
2023-04-23T16:14:52.461Z,46.92
2023-04-23T16:17:19.247Z,46.45
2023-04-23T16:19:46.466Z,47.22
2023-04-23T16:22:14.745Z,47.55
2023-04-23T16:24:41.388Z,48.30
2023-04-23T16:27:10.809Z,48.91
2023-04-23T16:29:38.142Z,49.50
2023-04-23T16:32:05.636Z,50.00
2023-04-23T16:34:32.600Z,50.46
2023-04-23T16:37:00.019Z,50.76
2023-04-23T16:39:27.080Z,50.97
2023-04-23T16:41:53.842Z,51.25
2023-04-23T16:44:20.377Z,51.06
2023-04-23T16:46:46.965Z,51.52
2023-04-23T16:49:13.759Z,51.83
2023-04-23T16:51:40.524Z,51.96
2023-04-23T16:54:07.129Z,51.80
2023-04-23T16:56:33.932Z,51.92
2023-04-23T16:59:00.770Z,52.70
2023-04-23T17:01:27.728Z,53.04
2023-04-23T17:03:54.769Z,53.27
2023-04-23T17:06:31.549Z,53.78
2023-04-23T17:09:00.438Z,54.44
2023-04-23T17:11:28.640Z,55.04
2023-04-23T17:13:56.198Z,55.88
2023-04-23T17:16:26.637Z,56.53
2023-04-23T17:18:54.334Z,56.79
2023-04-23T17:21:21.560Z,57.34
2023-04-23T17:23:48.217Z,57.61
2023-04-23T17:26:14.919Z,58.17
2023-04-23T17:28:41.847Z,58.87
2023-04-23T17:31:09.022Z,59.55
2023-04-23T17:33:36.374Z,59.48
2023-04-23T17:36:03.341Z,59.63
2023-04-23T17:38:29.959Z,59.96
2023-04-23T17:40:56.559Z,60.22
2023-04-23T17:43:23.061Z,60.92
2023-04-23T17:45:49.735Z,61.48
2023-04-23T17:48:16.838Z,61.40
2023-04-23T17:50:44.190Z,61.75
2023-04-23T17:53:10.865Z,61.91
2023-04-23T17:55:37.460Z,62.50
2023-04-23T17:58:07.160Z,62.68
2023-04-23T18:00:35.634Z,63.71
2023-04-23T18:03:02.906Z,64.52
2023-04-23T18:05:29.715Z,64.74
2023-04-23T18:07:56.512Z,65.21
2023-04-23T18:10:23.487Z,65.30
2023-04-23T18:12:50.247Z,65.49
2023-04-23T18:15:16.876Z,65.82
2023-04-23T18:17:43.490Z,65.83
2023-04-23T18:20:10.374Z,66.38
2023-04-23T18:22:38.283Z,66.57
2023-04-23T18:25:06.545Z,67.70
2023-04-23T18:27:34.247Z,67.65
2023-04-23T18:30:01.325Z,68.46
2023-04-23T18:32:34.334Z,69.36
2023-04-23T18:35:02.511Z,69.50
2023-04-23T18:37:37.736Z,70.03
2023-04-23T18:40:06.108Z,70.43
2023-04-23T18:42:34.593Z,70.99
2023-04-23T18:45:04.067Z,71.56
2023-04-23T18:47:37.040Z,72.11
2023-04-23T18:50:09.713Z,73.04
2023-04-23T18:52:36.307Z,73.07
2023-04-23T18:55:03.292Z,73.36
2023-04-23T18:57:30.086Z,73.71
2023-04-23T18:59:57.180Z,74.27
2023-04-23T19:02:34.416Z,74.56
2023-04-23T19:05:02.212Z,74.64
2023-04-23T19:07:28.761Z,74.73
2023-04-23T19:09:55.430Z,75.09
2023-04-23T19:12:22.044Z,74.98
2023-04-23T19:14:48.710Z,74.61
2023-04-23T19:17:17.983Z,74.84
2023-04-23T19:19:46.850Z,74.99
2023-04-23T19:22:14.618Z,74.86
2023-04-23T19:24:41.376Z,75.45
2023-04-23T19:27:09.239Z,75.25
2023-04-23T19:29:36.057Z,75.68
2023-04-23T19:32:02.878Z,75.77
2023-04-23T19:34:29.599Z,75.83
2023-04-23T19:36:56.261Z,76.33
2023-04-23T19:39:23.889Z,76.61
2023-04-23T19:41:50.525Z,76.52
2023-04-23T19:44:17.155Z,77.11
2023-04-23T19:46:45.811Z,77.50
2023-04-23T19:49:12.365Z,77.38
2023-04-23T19:51:42.160Z,77.50
2023-04-23T19:54:08.624Z,77.98
2023-04-23T19:56:35.201Z,78.34
2023-04-23T19:59:01.806Z,78.37
2023-04-23T20:01:30.877Z,78.80
2023-04-23T20:03:57.752Z,78.63
2023-04-23T20:06:24.700Z,78.56
2023-04-23T20:09:18.146Z,78.55
2023-04-23T20:11:46.078Z,78.59
2023-04-23T20:14:13.016Z,78.28
2023-04-23T20:16:40.923Z,78.15
2023-04-23T20:19:11.292Z,77.97
2023-04-23T20:21:39.270Z,78.02
2023-04-23T20:24:07.785Z,78.12
2023-04-23T20:26:35.520Z,77.49
2023-04-23T20:29:02.481Z,77.50
2023-04-23T20:31:29.387Z,77.53
2023-04-23T20:33:56.746Z,77.34
2023-04-23T20:36:28.745Z,77.10
2023-04-23T20:38:58.092Z,77.22
2023-04-23T20:41:26.469Z,77.20
2023-04-23T20:43:53.033Z,76.58
2023-04-23T20:46:19.689Z,76.59
2023-04-23T20:48:46.188Z,76.71
2023-04-23T20:51:13.066Z,76.15
2023-04-23T20:53:39.682Z,76.13
2023-04-23T20:56:06.381Z,76.50
2023-04-23T20:58:32.972Z,76.07
2023-04-23T21:01:00.149Z,76.05
2023-04-23T21:03:27.208Z,76.52
2023-04-23T21:05:54.041Z,75.96
2023-04-23T21:08:21.219Z,75.65
2023-04-23T21:10:47.861Z,75.48
2023-04-23T21:13:14.681Z,75.35
2023-04-23T21:15:41.652Z,74.59
2023-04-23T21:18:09.885Z,74.63
2023-04-23T21:20:36.498Z,74.74
2023-04-23T21:23:03.250Z,74.43
2023-04-23T21:25:29.787Z,74.53
2023-04-23T21:27:57.000Z,74.07
2023-04-23T21:30:41.513Z,73.91
2023-04-23T21:33:08.149Z,73.92
2023-04-23T21:35:34.611Z,73.76
2023-04-23T21:38:01.696Z,73.95
2023-04-23T21:40:28.361Z,73.68
2023-04-23T21:42:55.029Z,73.33
2023-04-23T21:45:21.483Z,72.45
2023-04-23T21:47:48.063Z,71.79
2023-04-23T21:50:17.402Z,71.79
2023-04-23T21:52:44.011Z,71.51
2023-04-23T21:55:12.422Z,71.11
2023-04-23T21:57:39.445Z,71.00
2023-04-23T22:00:07.748Z,71.00
2023-04-23T22:02:40.857Z,70.64
2023-04-23T22:05:09.250Z,70.73
2023-04-23T22:07:39.761Z,70.87
2023-04-23T22:10:08.070Z,71.23
2023-04-23T22:12:35.008Z,71.06
2023-04-23T22:15:01.830Z,71.37
2023-04-23T22:17:30.649Z,71.68
2023-04-23T22:19:57.195Z,71.91
2023-04-23T22:22:23.836Z,72.29
2023-04-23T22:24:50.476Z,72.06
2023-04-23T22:27:16.952Z,71.92
2023-04-23T22:29:43.683Z,71.82
2023-04-23T22:32:11.999Z,71.76
2023-04-23T22:34:38.662Z,72.89
2023-04-23T22:37:05.793Z,73.74
2023-04-23T22:39:32.292Z,75.25
2023-04-23T22:41:58.961Z,76.07
2023-04-23T22:44:25.453Z,76.86
2023-04-23T22:46:53.046Z,78.13
2023-04-23T22:49:19.632Z,78.67
2023-04-23T22:51:49.074Z,78.30
2023-04-23T22:54:16.838Z,78.76
2023-04-23T22:56:43.496Z,79.17
2023-04-23T22:59:13.201Z,79.37
2023-04-23T23:01:43.012Z,79.80
2023-04-23T23:04:09.927Z,79.91
2023-04-23T23:06:36.420Z,80.24
2023-04-23T23:09:03.066Z,80.42
2023-04-23T23:11:29.673Z,80.80
2023-04-23T23:13:56.322Z,80.97
2023-04-23T23:16:23.560Z,81.53
2023-04-23T23:18:50.194Z,81.65
2023-04-23T23:21:16.769Z,81.85
2023-04-23T23:23:45.347Z,81.64
2023-04-23T23:26:12.138Z,82.00
2023-04-23T23:28:39.150Z,82.25
2023-04-23T23:31:05.682Z,82.96
2023-04-23T23:33:32.438Z,82.46
2023-04-23T23:35:58.919Z,82.81
2023-04-23T23:38:25.711Z,83.22
2023-04-23T23:40:52.569Z,83.13
2023-04-23T23:43:19.112Z,83.25
2023-04-23T23:45:46.172Z,83.06
2023-04-23T23:48:13.044Z,83.12
2023-04-23T23:50:39.610Z,83.25
2023-04-23T23:53:06.138Z,82.99
2023-04-23T23:55:32.656Z,83.01
2023-04-23T23:58:01.077Z,82.68
